sensor_id;sensor_type;location;lat;lon;timestamp;pressure;altitude;pressure_sealevel;temperature;humidity
78373;BME280;67656;52.074;4.758;2023-09-12T00:02:46;101377.53;;;19.98;100.00
78373;BME280;67656;52.074;4.758;2023-09-12T00:07:47;101376.19;;;19.90;100.00
78373;BME280;67656;52.074;4.758;2023-09-12T00:12:47;101374.34;;;19.75;100.00
78373;BME280;67656;52.074;4.758;2023-09-12T00:17:47;101374.06;;;19.65;100.00
78373;BME280;67656;52.074;4.758;2023-09-12T00:22:48;101378.97;;;19.57;100.00
78373;BME280;67656;52.074;4.758;2023-09-12T00:27:48;101377.25;;;19.56;100.00
78373;BME280;67656;52.074;4.758;2023-09-12T00:32:48;101362.41;;;19.50;100.00
78373;BME280;67656;52.074;4.758;2023-09-12T00:37:49;101357.31;;;19.45;100.00
78373;BME280;67656;52.074;4.758;2023-09-12T00:42:49;101359.44;;;19.55;100.00
78373;BME280;67656;52.074;4.758;2023-09-12T00:47:51;101357.66;;;19.55;100.00
78373;BME280;67656;52.074;4.758;2023-09-12T00:52:53;101350.22;;;19.44;100.00
78373;BME280;67656;52.074;4.758;2023-09-12T00:57:54;101347.56;;;19.44;100.00
78373;BME280;67656;52.074;4.758;2023-09-12T01:02:55;101352.41;;;19.38;100.00
78373;BME280;67656;52.074;4.758;2023-09-12T01:07:55;101360.41;;;19.38;100.00
78373;BME280;67656;52.074;4.758;2023-09-12T01:12:56;101364.03;;;19.37;100.00
78373;BME280;67656;52.074;4.758;2023-09-12T01:17:57;101365.63;;;19.41;100.00
78373;BME280;67656;52.074;4.758;2023-09-12T01:24:19;101361.75;;;19.30;100.00
78373;BME280;67656;52.074;4.758;2023-09-12T01:28:47;101359.38;;;19.24;100.00
78373;BME280;67656;52.074;4.758;2023-09-12T01:33:47;101360.88;;;19.14;100.00
78373;BME280;67656;52.074;4.758;2023-09-12T01:38:49;101350.59;;;19.06;100.00
78373;BME280;67656;52.074;4.758;2023-09-12T01:43:50;101358.72;;;19.05;100.00
78373;BME280;67656;52.074;4.758;2023-09-12T01:48:51;101351.38;;;19.08;100.00
78373;BME280;67656;52.074;4.758;2023-09-12T01:53:54;101356.19;;;19.01;100.00
78373;BME280;67656;52.074;4.758;2023-09-12T01:58:54;101358.28;;;19.12;100.00
78373;BME280;67656;52.074;4.758;2023-09-12T02:03:55;101348.78;;;19.07;100.00
78373;BME280;67656;52.074;4.758;2023-09-12T02:08:56;101352.56;;;19.02;100.00
78373;BME280;67656;52.074;4.758;2023-09-12T02:13:56;101360.28;;;19.09;100.00
78373;BME280;67656;52.074;4.758;2023-09-12T02:18:56;101366.06;;;19.17;100.00
78373;BME280;67656;52.074;4.758;2023-09-12T02:23:57;101355.69;;;19.11;100.00
78373;BME280;67656;52.074;4.758;2023-09-12T02:28:57;101361.91;;;19.11;100.00
78373;BME280;67656;52.074;4.758;2023-09-12T02:33:57;101359.31;;;19.10;100.00
78373;BME280;67656;52.074;4.758;2023-09-12T02:38:58;101351.72;;;19.18;100.00
78373;BME280;67656;52.074;4.758;2023-09-12T02:43:58;101356.97;;;19.03;100.00
78373;BME280;67656;52.074;4.758;2023-09-12T02:48:58;101359.09;;;18.81;100.00
78373;BME280;67656;52.074;4.758;2023-09-12T02:53:59;101366.66;;;18.72;100.00
78373;BME280;67656;52.074;4.758;2023-09-12T02:58:59;101366.72;;;18.55;100.00
78373;BME280;67656;52.074;4.758;2023-09-12T03:04:01;101363.88;;;18.58;100.00
78373;BME280;67656;52.074;4.758;2023-09-12T03:09:02;101361.97;;;18.60;100.00
78373;BME280;67656;52.074;4.758;2023-09-12T03:14:02;101338.84;;;18.59;100.00
78373;BME280;67656;52.074;4.758;2023-09-12T03:19:03;101351.53;;;18.71;100.00
78373;BME280;67656;52.074;4.758;2023-09-12T03:24:04;101358.72;;;18.71;100.00
78373;BME280;67656;52.074;4.758;2023-09-12T03:29:04;101346.13;;;18.73;100.00
78373;BME280;67656;52.074;4.758;2023-09-12T03:34:05;101348.41;;;18.81;100.00
78373;BME280;67656;52.074;4.758;2023-09-12T03:39:05;101346.88;;;18.59;100.00
78373;BME280;67656;52.074;4.758;2023-09-12T03:44:06;101347.72;;;18.44;100.00
78373;BME280;67656;52.074;4.758;2023-09-12T03:49:07;101352.06;;;18.62;100.00
78373;BME280;67656;52.074;4.758;2023-09-12T03:54:07;101352.97;;;18.79;100.00
78373;BME280;67656;52.074;4.758;2023-09-12T03:59:08;101366.84;;;18.69;100.00
78373;BME280;67656;52.074;4.758;2023-09-12T04:04:09;101364.59;;;18.78;100.00
78373;BME280;67656;52.074;4.758;2023-09-12T04:09:09;101355.88;;;18.74;100.00
78373;BME280;67656;52.074;4.758;2023-09-12T04:14:09;101344.41;;;18.88;100.00
78373;BME280;67656;52.074;4.758;2023-09-12T04:19:10;101354.72;;;18.96;100.00
78373;BME280;67656;52.074;4.758;2023-09-12T04:24:10;101352.06;;;19.12;100.00
78373;BME280;67656;52.074;4.758;2023-09-12T04:29:11;101353.25;;;19.06;100.00
78373;BME280;67656;52.074;4.758;2023-09-12T04:34:11;101346.53;;;19.15;100.00
78373;BME280;67656;52.074;4.758;2023-09-12T04:39:12;101348.28;;;19.16;100.00
78373;BME280;67656;52.074;4.758;2023-09-12T04:44:12;101358.97;;;19.16;100.00
78373;BME280;67656;52.074;4.758;2023-09-12T04:49:13;101351.09;;;19.13;100.00
78373;BME280;67656;52.074;4.758;2023-09-12T04:54:13;101349.03;;;19.34;100.00
78373;BME280;67656;52.074;4.758;2023-09-12T04:59:14;101345.56;;;19.48;100.00
78373;BME280;67656;52.074;4.758;2023-09-12T05:04:14;101349.38;;;19.44;100.00
78373;BME280;67656;52.074;4.758;2023-09-12T05:09:14;101355.16;;;19.52;100.00
78373;BME280;67656;52.074;4.758;2023-09-12T05:14:15;101338.91;;;19.55;100.00
78373;BME280;67656;52.074;4.758;2023-09-12T05:19:15;101350.25;;;19.75;100.00
78373;BME280;67656;52.074;4.758;2023-09-12T05:24:16;101342.00;;;19.63;100.00
78373;BME280;67656;52.074;4.758;2023-09-12T05:29:16;101351.13;;;19.75;100.00
78373;BME280;67656;52.074;4.758;2023-09-12T05:34:17;101351.81;;;19.79;100.00
78373;BME280;67656;52.074;4.758;2023-09-12T05:39:17;101361.22;;;19.86;100.00
78373;BME280;67656;52.074;4.758;2023-09-12T05:44:17;101361.28;;;20.01;100.00
78373;BME280;67656;52.074;4.758;2023-09-12T05:49:18;101365.81;;;20.15;100.00
78373;BME280;67656;52.074;4.758;2023-09-12T05:54:19;101369.75;;;20.23;100.00
78373;BME280;67656;52.074;4.758;2023-09-12T05:59:19;101367.28;;;20.20;100.00
78373;BME280;67656;52.074;4.758;2023-09-12T06:04:22;101368.78;;;20.24;100.00
78373;BME280;67656;52.074;4.758;2023-09-12T06:09:22;101370.03;;;20.19;100.00
78373;BME280;67656;52.074;4.758;2023-09-12T06:14:23;101368.78;;;20.24;100.00
78373;BME280;67656;52.074;4.758;2023-09-12T06:19:24;101365.38;;;20.22;100.00
78373;BME280;67656;52.074;4.758;2023-09-12T06:24:25;101373.38;;;20.08;100.00
78373;BME280;67656;52.074;4.758;2023-09-12T06:29:26;101368.28;;;20.18;100.00
78373;BME280;67656;52.074;4.758;2023-09-12T06:34:26;101359.63;;;20.29;100.00
78373;BME280;67656;52.074;4.758;2023-09-12T06:39:29;101387.66;;;20.23;100.00
78373;BME280;67656;52.074;4.758;2023-09-12T06:44:30;101389.06;;;20.14;100.00
78373;BME280;67656;52.074;4.758;2023-09-12T06:49:30;101391.06;;;20.70;100.00
78373;BME280;67656;52.074;4.758;2023-09-12T06:54:32;101378.06;;;20.78;100.00
78373;BME280;67656;52.074;4.758;2023-09-12T06:59:33;101367.28;;;21.22;100.00
78373;BME280;67656;52.074;4.758;2023-09-12T07:04:33;101366.53;;;21.05;100.00
78373;BME280;67656;52.074;4.758;2023-09-12T07:09:34;101381.84;;;20.74;100.00
78373;BME280;67656;52.074;4.758;2023-09-12T07:14:34;101374.56;;;20.62;100.00
78373;BME280;67656;52.074;4.758;2023-09-12T07:19:34;101371.06;;;20.90;100.00
78373;BME280;67656;52.074;4.758;2023-09-12T07:24:35;101379.66;;;22.32;100.00
78373;BME280;67656;52.074;4.758;2023-09-12T07:29:35;101373.31;;;22.72;100.00
78373;BME280;67656;52.074;4.758;2023-09-12T07:34:36;101375.44;;;22.28;100.00
78373;BME280;67656;52.074;4.758;2023-09-12T07:39:36;101374.69;;;21.60;100.00
78373;BME280;67656;52.074;4.758;2023-09-12T07:44:36;101384.63;;;21.85;100.00
78373;BME280;67656;52.074;4.758;2023-09-12T07:49:37;101388.94;;;21.88;100.00
78373;BME280;67656;52.074;4.758;2023-09-12T07:54:37;101376.94;;;23.10;100.00
78373;BME280;67656;52.074;4.758;2023-09-12T07:59:38;101365.00;;;24.34;100.00
78373;BME280;67656;52.074;4.758;2023-09-12T08:04:38;101363.84;;;23.78;100.00
78373;BME280;67656;52.074;4.758;2023-09-12T08:14:49;101367.38;;;24.03;100.00
78373;BME280;67656;52.074;4.758;2023-09-12T08:19:49;101375.75;;;24.11;100.00
78373;BME280;67656;52.074;4.758;2023-09-12T08:24:50;101375.66;;;24.35;100.00
78373;BME280;67656;52.074;4.758;2023-09-12T08:29:50;101366.22;;;24.30;100.00
78373;BME280;67656;52.074;4.758;2023-09-12T08:34:50;101369.72;;;25.88;100.00
78373;BME280;67656;52.074;4.758;2023-09-12T08:39:51;101369.84;;;25.86;100.00
78373;BME280;67656;52.074;4.758;2023-09-12T08:44:59;101372.88;;;25.93;100.00
78373;BME280;67656;52.074;4.758;2023-09-12T08:50:06;101364.00;;;26.76;100.00
78373;BME280;67656;52.074;4.758;2023-09-12T08:55:08;101362.66;;;26.39;100.00
78373;BME280;67656;52.074;4.758;2023-09-12T09:00:09;101357.66;;;26.34;100.00
78373;BME280;67656;52.074;4.758;2023-09-12T09:05:11;101359.56;;;27.16;100.00
78373;BME280;67656;52.074;4.758;2023-09-12T09:10:16;101353.75;;;27.30;100.00
78373;BME280;67656;52.074;4.758;2023-09-12T09:15:23;101360.81;;;26.71;100.00
78373;BME280;67656;52.074;4.758;2023-09-12T09:25:26;101367.44;;;25.51;100.00
78373;BME280;67656;52.074;4.758;2023-09-12T09:30:43;101383.41;;;25.31;100.00
78373;BME280;67656;52.074;4.758;2023-09-12T09:35:48;101389.13;;;24.24;100.00
78373;BME280;67656;52.074;4.758;2023-09-12T09:40:49;101390.53;;;24.64;100.00
78373;BME280;67656;52.074;4.758;2023-09-12T09:45:49;101397.91;;;24.62;100.00
78373;BME280;67656;52.074;4.758;2023-09-12T09:50:50;101386.09;;;25.31;100.00
78373;BME280;67656;52.074;4.758;2023-09-12T10:01:43;101400.22;;;25.79;100.00
78373;BME280;67656;52.074;4.758;2023-09-12T10:06:44;101400.25;;;25.67;100.00
78373;BME280;67656;52.074;4.758;2023-09-12T10:11:46;101395.03;;;26.72;100.00
78373;BME280;67656;52.074;4.758;2023-09-12T10:16:56;101391.84;;;26.14;100.00
78373;BME280;67656;52.074;4.758;2023-09-12T10:22:07;101392.06;;;25.90;100.00
78373;BME280;67656;52.074;4.758;2023-09-12T10:27:11;101384.69;;;25.59;100.00
78373;BME280;67656;52.074;4.758;2023-09-12T10:32:12;101380.75;;;26.70;100.00
78373;BME280;67656;52.074;4.758;2023-09-12T10:37:19;101374.94;;;26.43;100.00
78373;BME280;67656;52.074;4.758;2023-09-12T10:42:23;101372.06;;;26.66;100.00
78373;BME280;67656;52.074;4.758;2023-09-12T10:47:24;101382.63;;;26.69;100.00
78373;BME280;67656;52.074;4.758;2023-09-12T10:52:26;101359.50;;;27.56;100.00
78373;BME280;67656;52.074;4.758;2023-09-12T10:57:28;101359.84;;;26.72;100.00
78373;BME280;67656;52.074;4.758;2023-09-12T11:02:34;101350.88;;;26.71;100.00
78373;BME280;67656;52.074;4.758;2023-09-12T11:12:42;101377.59;;;26.33;100.00
78373;BME280;67656;52.074;4.758;2023-09-12T11:17:44;101369.38;;;25.81;100.00
78373;BME280;67656;52.074;4.758;2023-09-12T11:22:47;101357.41;;;26.37;100.00
78373;BME280;67656;52.074;4.758;2023-09-12T11:32:53;101371.69;;;26.18;100.00
78373;BME280;67656;52.074;4.758;2023-09-12T11:37:56;101379.75;;;25.09;100.00
78373;BME280;67656;52.074;4.758;2023-09-12T11:42:57;101382.81;;;24.59;100.00
78373;BME280;67656;52.074;4.758;2023-09-12T11:48:12;101375.41;;;24.16;100.00
78373;BME280;67656;52.074;4.758;2023-09-12T11:53:19;101382.81;;;24.01;100.00
78373;BME280;67656;52.074;4.758;2023-09-12T11:58:33;101399.41;;;23.83;100.00
78373;BME280;67656;52.074;4.758;2023-09-12T12:03:46;101401.44;;;23.18;100.00
78373;BME280;67656;52.074;4.758;2023-09-12T12:08:47;101404.59;;;23.12;100.00
78373;BME280;67656;52.074;4.758;2023-09-12T12:13:48;101415.94;;;22.65;100.00
78373;BME280;67656;52.074;4.758;2023-09-12T12:18:48;101455.63;;;21.39;100.00
78373;BME280;67656;52.074;4.758;2023-09-12T12:23:57;101443.13;;;20.96;100.00
78373;BME280;67656;52.074;4.758;2023-09-12T12:29:00;101441.78;;;20.75;100.00
78373;BME280;67656;52.074;4.758;2023-09-12T12:34:04;101433.06;;;20.85;100.00
78373;BME280;67656;52.074;4.758;2023-09-12T12:39:46;101423.06;;;21.31;100.00
78373;BME280;67656;52.074;4.758;2023-09-12T12:45:36;101405.50;;;21.94;100.00
78373;BME280;67656;52.074;4.758;2023-09-12T12:50:39;101395.69;;;22.21;100.00
78373;BME280;67656;52.074;4.758;2023-09-12T12:55:49;101405.94;;;22.67;100.00
78373;BME280;67656;52.074;4.758;2023-09-12T13:01:02;101410.91;;;22.61;100.00
78373;BME280;67656;52.074;4.758;2023-09-12T13:06:05;101385.59;;;22.63;100.00
78373;BME280;67656;52.074;4.758;2023-09-12T13:11:06;101391.50;;;22.94;100.00
78373;BME280;67656;52.074;4.758;2023-09-12T13:16:08;101393.88;;;23.36;100.00
78373;BME280;67656;52.074;4.758;2023-09-12T13:21:09;101373.44;;;23.34;100.00
78373;BME280;67656;52.074;4.758;2023-09-12T13:26:09;101370.69;;;23.71;100.00
78373;BME280;67656;52.074;4.758;2023-09-12T13:31:10;101361.69;;;23.95;100.00
78373;BME280;67656;52.074;4.758;2023-09-12T13:36:10;101364.59;;;23.80;100.00
78373;BME280;67656;52.074;4.758;2023-09-12T13:41:11;101348.91;;;23.74;100.00
78373;BME280;67656;52.074;4.758;2023-09-12T13:46:11;101354.50;;;23.71;100.00
78373;BME280;67656;52.074;4.758;2023-09-12T13:51:12;101364.59;;;23.31;100.00
78373;BME280;67656;52.074;4.758;2023-09-12T13:56:12;101351.06;;;23.07;100.00
78373;BME280;67656;52.074;4.758;2023-09-12T14:01:17;101365.47;;;23.19;100.00
78373;BME280;67656;52.074;4.758;2023-09-12T14:06:20;101365.25;;;22.85;100.00
78373;BME280;67656;52.074;4.758;2023-09-12T14:11:39;101370.63;;;22.85;100.00
78373;BME280;67656;52.074;4.758;2023-09-12T14:16:43;101364.53;;;22.57;100.00
78373;BME280;67656;52.074;4.758;2023-09-12T14:21:44;101384.28;;;22.30;100.00
78373;BME280;67656;52.074;4.758;2023-09-12T14:26:44;101400.81;;;22.11;100.00
78373;BME280;67656;52.074;4.758;2023-09-12T14:31:45;101388.75;;;21.63;100.00
78373;BME280;67656;52.074;4.758;2023-09-12T14:36:50;101369.66;;;21.54;100.00
78373;BME280;67656;52.074;4.758;2023-09-12T14:41:54;101378.28;;;21.59;100.00
78373;BME280;67656;52.074;4.758;2023-09-12T14:46:54;101370.13;;;21.33;100.00
78373;BME280;67656;52.074;4.758;2023-09-12T14:51:55;101377.25;;;21.20;100.00
78373;BME280;67656;52.074;4.758;2023-09-12T14:56:55;101365.72;;;21.32;100.00
78373;BME280;67656;52.074;4.758;2023-09-12T15:01:56;101349.41;;;21.35;100.00
78373;BME280;67656;52.074;4.758;2023-09-12T15:06:56;101342.09;;;21.37;100.00
78373;BME280;67656;52.074;4.758;2023-09-12T15:11:56;101336.22;;;21.45;100.00
78373;BME280;67656;52.074;4.758;2023-09-12T15:16:57;101333.75;;;21.42;100.00
78373;BME280;67656;52.074;4.758;2023-09-12T15:21:57;101332.06;;;21.54;100.00
78373;BME280;67656;52.074;4.758;2023-09-12T15:27:00;101324.81;;;21.69;100.00
78373;BME280;67656;52.074;4.758;2023-09-12T15:32:01;101318.19;;;21.74;100.00
78373;BME280;67656;52.074;4.758;2023-09-12T15:37:12;101330.19;;;22.22;100.00
78373;BME280;67656;52.074;4.758;2023-09-12T15:42:13;101330.28;;;22.20;100.00
78373;BME280;67656;52.074;4.758;2023-09-12T15:47:13;101337.78;;;22.02;100.00
78373;BME280;67656;52.074;4.758;2023-09-12T15:52:13;101323.28;;;21.92;100.00
78373;BME280;67656;52.074;4.758;2023-09-12T15:57:14;101335.47;;;22.11;100.00
78373;BME280;67656;52.074;4.758;2023-09-12T16:02:18;101327.03;;;22.02;100.00
78373;BME280;67656;52.074;4.758;2023-09-12T16:07:19;101326.19;;;22.15;100.00
78373;BME280;67656;52.074;4.758;2023-09-12T16:12:19;101309.22;;;22.14;100.00
78373;BME280;67656;52.074;4.758;2023-09-12T16:17:20;101314.59;;;22.27;100.00
78373;BME280;67656;52.074;4.758;2023-09-12T16:22:20;101323.50;;;22.15;100.00
78373;BME280;67656;52.074;4.758;2023-09-12T16:27:20;101317.59;;;22.22;100.00
78373;BME280;67656;52.074;4.758;2023-09-12T16:32:21;101316.97;;;22.19;100.00
78373;BME280;67656;52.074;4.758;2023-09-12T16:37:21;101306.09;;;22.33;100.00
78373;BME280;67656;52.074;4.758;2023-09-12T16:42:22;101317.38;;;22.38;100.00
78373;BME280;67656;52.074;4.758;2023-09-12T16:47:22;101315.44;;;22.40;100.00
78373;BME280;67656;52.074;4.758;2023-09-12T16:52:23;101322.56;;;22.29;100.00
78373;BME280;67656;52.074;4.758;2023-09-12T16:57:23;101330.28;;;22.33;100.00
78373;BME280;67656;52.074;4.758;2023-09-12T17:02:24;101332.44;;;22.28;100.00
78373;BME280;67656;52.074;4.758;2023-09-12T17:07:27;101329.84;;;22.39;100.00
78373;BME280;67656;52.074;4.758;2023-09-12T17:12:27;101334.38;;;22.26;100.00
78373;BME280;67656;52.074;4.758;2023-09-12T17:17:34;101342.34;;;22.28;100.00
78373;BME280;67656;52.074;4.758;2023-09-12T17:22:41;101338.03;;;22.12;100.00
78373;BME280;67656;52.074;4.758;2023-09-12T17:27:44;101333.19;;;22.04;100.00
78373;BME280;67656;52.074;4.758;2023-09-12T17:32:47;101331.66;;;22.00;100.00
78373;BME280;67656;52.074;4.758;2023-09-12T17:37:50;101338.44;;;21.93;100.00
78373;BME280;67656;52.074;4.758;2023-09-12T17:42:53;101339.59;;;21.89;100.00
78373;BME280;67656;52.074;4.758;2023-09-12T17:47:59;101350.22;;;21.77;100.00
78373;BME280;67656;52.074;4.758;2023-09-12T17:52:59;101356.91;;;21.85;100.00
78373;BME280;67656;52.074;4.758;2023-09-12T17:57:59;101363.13;;;21.85;100.00
78373;BME280;67656;52.074;4.758;2023-09-12T18:03:00;101360.94;;;21.65;100.00
78373;BME280;67656;52.074;4.758;2023-09-12T18:08:00;101357.94;;;21.69;100.00
78373;BME280;67656;52.074;4.758;2023-09-12T18:13:06;101366.50;;;21.61;100.00
78373;BME280;67656;52.074;4.758;2023-09-12T18:18:07;101362.75;;;21.49;100.00
78373;BME280;67656;52.074;4.758;2023-09-12T18:23:07;101368.81;;;21.53;100.00
78373;BME280;67656;52.074;4.758;2023-09-12T18:28:07;101373.56;;;21.35;100.00
78373;BME280;67656;52.074;4.758;2023-09-12T18:33:08;101377.97;;;21.36;100.00
78373;BME280;67656;52.074;4.758;2023-09-12T18:38:08;101382.47;;;21.36;100.00
78373;BME280;67656;52.074;4.758;2023-09-12T18:43:08;101398.53;;;21.23;100.00
78373;BME280;67656;52.074;4.758;2023-09-12T18:48:09;101396.97;;;21.33;100.00
78373;BME280;67656;52.074;4.758;2023-09-12T18:53:09;101403.31;;;21.32;100.00
78373;BME280;67656;52.074;4.758;2023-09-12T18:58:11;101413.25;;;21.44;100.00
78373;BME280;67656;52.074;4.758;2023-09-12T19:03:12;101409.22;;;21.37;100.00
78373;BME280;67656;52.074;4.758;2023-09-12T19:13:14;101403.69;;;21.11;100.00
78373;BME280;67656;52.074;4.758;2023-09-12T19:18:18;101413.94;;;21.19;100.00
78373;BME280;67656;52.074;4.758;2023-09-12T19:23:18;101408.47;;;21.35;100.00
78373;BME280;67656;52.074;4.758;2023-09-12T19:28:41;101401.22;;;21.23;100.00
78373;BME280;67656;52.074;4.758;2023-09-12T19:33:49;101399.97;;;21.14;100.00
78373;BME280;67656;52.074;4.758;2023-09-12T19:38:49;101402.28;;;21.06;100.00
78373;BME280;67656;52.074;4.758;2023-09-12T19:43:49;101394.75;;;20.98;100.00
78373;BME280;67656;52.074;4.758;2023-09-12T19:48:50;101397.31;;;20.85;100.00
78373;BME280;67656;52.074;4.758;2023-09-12T19:53:50;101402.09;;;20.80;100.00
78373;BME280;67656;52.074;4.758;2023-09-12T19:58:53;101399.00;;;20.71;100.00
78373;BME280;67656;52.074;4.758;2023-09-12T20:04:02;101387.63;;;20.68;100.00
78373;BME280;67656;52.074;4.758;2023-09-12T20:09:11;101385.41;;;20.60;100.00
78373;BME280;67656;52.074;4.758;2023-09-12T20:14:12;101390.28;;;20.53;100.00
78373;BME280;67656;52.074;4.758;2023-09-12T20:19:18;101389.91;;;20.45;100.00
78373;BME280;67656;52.074;4.758;2023-09-12T20:24:18;101397.84;;;20.47;100.00
78373;BME280;67656;52.074;4.758;2023-09-12T20:29:25;101399.84;;;20.43;100.00
78373;BME280;67656;52.074;4.758;2023-09-12T20:34:25;101396.38;;;20.26;100.00
78373;BME280;67656;52.074;4.758;2023-09-12T20:39:29;101403.78;;;20.37;100.00
78373;BME280;67656;52.074;4.758;2023-09-12T20:44:33;101403.16;;;20.32;100.00
78373;BME280;67656;52.074;4.758;2023-09-12T20:49:53;101396.28;;;20.42;100.00
78373;BME280;67656;52.074;4.758;2023-09-12T20:54:58;101388.75;;;20.35;100.00
78373;BME280;67656;52.074;4.758;2023-09-12T20:59:59;101395.63;;;20.39;100.00
78373;BME280;67656;52.074;4.758;2023-09-12T21:04:59;101388.47;;;20.39;100.00
78373;BME280;67656;52.074;4.758;2023-09-12T21:09:59;101385.09;;;20.36;100.00
78373;BME280;67656;52.074;4.758;2023-09-12T21:15:00;101390.66;;;20.33;100.00
78373;BME280;67656;52.074;4.758;2023-09-12T21:20:00;101382.41;;;20.21;100.00
78373;BME280;67656;52.074;4.758;2023-09-12T21:25:01;101398.09;;;20.28;100.00
78373;BME280;67656;52.074;4.758;2023-09-12T21:30:03;101404.22;;;20.30;100.00
78373;BME280;67656;52.074;4.758;2023-09-12T21:35:11;101415.84;;;20.45;100.00
78373;BME280;67656;52.074;4.758;2023-09-12T21:40:13;101414.03;;;20.45;100.00
78373;BME280;67656;52.074;4.758;2023-09-12T21:45:14;101421.47;;;20.40;100.00
78373;BME280;67656;52.074;4.758;2023-09-12T21:50:14;101417.66;;;20.44;100.00
78373;BME280;67656;52.074;4.758;2023-09-12T21:55:15;101418.63;;;20.43;100.00
78373;BME280;67656;52.074;4.758;2023-09-12T22:00:15;101419.56;;;20.42;100.00
78373;BME280;67656;52.074;4.758;2023-09-12T22:05:15;101417.66;;;20.44;100.00
78373;BME280;67656;52.074;4.758;2023-09-12T22:10:17;101403.31;;;20.45;100.00
78373;BME280;67656;52.074;4.758;2023-09-12T22:15:18;101408.38;;;20.50;100.00
78373;BME280;67656;52.074;4.758;2023-09-12T22:20:18;101407.50;;;20.49;100.00
78373;BME280;67656;52.074;4.758;2023-09-12T22:25:19;101410.75;;;20.40;100.00
78373;BME280;67656;52.074;4.758;2023-09-12T22:30:19;101414.38;;;20.39;100.00
78373;BME280;67656;52.074;4.758;2023-09-12T22:35:20;101405.97;;;20.31;100.00
78373;BME280;67656;52.074;4.758;2023-09-12T22:40:20;101407.09;;;20.26;100.00
78373;BME280;67656;52.074;4.758;2023-09-12T22:45:20;101400.47;;;20.18;100.00
78373;BME280;67656;52.074;4.758;2023-09-12T22:50:21;101395.66;;;20.08;100.00
78373;BME280;67656;52.074;4.758;2023-09-12T22:55:21;101405.53;;;20.08;100.00
78373;BME280;67656;52.074;4.758;2023-09-12T23:00:21;101413.59;;;20.22;100.00
78373;BME280;67656;52.074;4.758;2023-09-12T23:05:22;101415.13;;;20.26;100.00
78373;BME280;67656;52.074;4.758;2023-09-12T23:10:22;101416.41;;;20.35;100.00
78373;BME280;67656;52.074;4.758;2023-09-12T23:15:23;101411.53;;;20.42;100.00
78373;BME280;67656;52.074;4.758;2023-09-12T23:20:24;101405.38;;;20.40;100.00
78373;BME280;67656;52.074;4.758;2023-09-12T23:25:24;101399.47;;;20.35;100.00
78373;BME280;67656;52.074;4.758;2023-09-12T23:30:24;101407.69;;;20.32;100.00
78373;BME280;67656;52.074;4.758;2023-09-12T23:35:24;101404.28;;;20.14;100.00
78373;BME280;67656;52.074;4.758;2023-09-12T23:40:25;101402.41;;;20.00;100.00
78373;BME280;67656;52.074;4.758;2023-09-12T23:45:25;101405.00;;;19.85;100.00
78373;BME280;67656;52.074;4.758;2023-09-12T23:50:26;101414.19;;;19.81;100.00
78373;BME280;67656;52.074;4.758;2023-09-12T23:55:26;101409.44;;;19.86;100.00
